»·PEaware :: N1523S L52-L88

N1523S :: L52-L88

FLIGHT INFORMATION

Flight Status: Arrived
Operator: Privately registered:
United States
More flights under this callsign
Pilot: Jim D. (16278)
Aircraft: PIPER PA-44 SEMINOLE
(PA44)
More flights by this aircraft type
Origin: L52 Oceano Co
United States
Destination: L88 New Cuyama
United States
More flights between these airports :: More routes between these airports
Route: VFR DCT
File this flight plan on PilotEdge
Remarks: CAT-I
Altitude:
(Current/Filed)
7,500ft
Speed:
(Current/Filed)
125kts
Departed: 10-Oct-18 10:29 PM
Arrived: 10-Oct-18 10:55 PM
Distance/Time
Traveled:
47nm/0:26
Distance/Time
To Go:
Arrived

Flight Plot

Page will automatically refresh every two minutes.

Flight plan parsing failed; only flown route is shown


Map Options




Map Legend


Flown Route
Filed Route
Departure Airport
Arrival Airport
Navaid (VOR, NDB)
Fix

Horizontal Profiles

Position Reports

Time Latitude Longitude Heading Altitude Ground
Speed
10-Oct-18 22:21 35.103387 -120.624684 212 17ft 0kts
10-Oct-18 22:22 35.103387 -120.624684 212 17ft 0kts
10-Oct-18 22:23 35.103387 -120.624684 212 17ft 0kts
10-Oct-18 22:24 35.103387 -120.624684 212 17ft 0kts
10-Oct-18 22:25 35.103387 -120.624684 212 17ft 0kts
10-Oct-18 22:26 35.103387 -120.624684 212 17ft 0kts
10-Oct-18 22:27 35.103258 -120.624626 128 17ft 5kts
10-Oct-18 22:28 35.101999 -120.624183 125 17ft 9kts
10-Oct-18 22:29 35.100303 -120.620992 122 17ft 14kts
10-Oct-18 22:30 35.099456 -120.619535 29 17ft 0kts
10-Oct-18 22:31 35.105874 -120.630089 306 477ft 96kts
10-Oct-18 22:32 35.092981 -120.645012 130 2130ft 118kts
10-Oct-18 22:33 35.071442 -120.611916 114 3245ft 127kts
10-Oct-18 22:34 35.071865 -120.569709 84 4256ft 126kts
10-Oct-18 22:35 35.078141 -120.527728 75 5202ft 127kts
10-Oct-18 22:36 35.080249 -120.486118 101 6153ft 125kts
10-Oct-18 22:37 35.073295 -120.444077 100 7002ft 126kts
10-Oct-18 22:38 35.064459 -120.400588 94 7435ft 144kts
10-Oct-18 22:39 35.058464 -120.350855 100 7430ft 149kts
10-Oct-18 22:40 35.049178 -120.293540 101 7430ft 149kts
10-Oct-18 22:41 35.041616 -120.252435 103 7430ft 149kts
10-Oct-18 22:42 35.030977 -120.194965 102 7430ft 149kts
10-Oct-18 22:43 35.023807 -120.153671 102 7430ft 149kts
10-Oct-18 22:44 35.013764 -120.095854 102 7424ft 147kts
10-Oct-18 22:45 35.006801 -120.055733 106 6744ft 140kts
10-Oct-18 22:46 34.995965 -120.012442 108 5899ft 130kts
10-Oct-18 22:47 34.985599 -119.970814 107 5133ft 126kts
10-Oct-18 22:48 34.974678 -119.930763 108 4493ft 122kts
10-Oct-18 22:49 34.963317 -119.891160 108 4025ft 128kts
10-Oct-18 22:50 34.951781 -119.848193 109 3912ft 138kts
10-Oct-18 22:51 34.938107 -119.805298 113 3880ft 135kts
10-Oct-18 22:52 34.923609 -119.762915 110 3832ft 135kts
10-Oct-18 22:53 34.913252 -119.721726 102 3752ft 118kts
10-Oct-18 22:54 34.907976 -119.684616 98 3271ft 104kts
10-Oct-18 22:55 34.924973 -119.662715 7 2599ft 70kts
10-Oct-18 22:56 34.936322 -119.676600 297 2282ft 68kts
10-Oct-18 22:57 34.942280 -119.690951 348 2206ft 13kts
10-Oct-18 22:58 34.943678 -119.691217 295 2206ft 0kts
10-Oct-18 22:59 34.943678 -119.691217 295 2206ft 0kts
10-Oct-18 23:00 34.943678 -119.691217 295 2206ft 0kts
10-Oct-18 23:01 34.943678 -119.691217 295 2206ft 0kts
10-Oct-18 23:02 34.943678 -119.691217 295 2206ft 0kts
10-Oct-18 23:03 34.943678 -119.691217 295 2206ft 0kts
10-Oct-18 23:04 34.943678 -119.691217 295 2206ft 0kts
10-Oct-18 23:05 34.943678 -119.691217 295 2206ft 0kts
10-Oct-18 23:06 34.943678 -119.691217 295 2206ft 0kts
10-Oct-18 23:07 34.943678 -119.691217 295 2206ft 0kts
10-Oct-18 23:08 34.943678 -119.691217 295 2206ft 0kts
10-Oct-18 23:09 34.943678 -119.691217 295 2206ft 0kts
10-Oct-18 23:10 34.943678 -119.691217 295 2206ft 0kts
10-Oct-18 23:11 34.943678 -119.691217 295 2206ft 0kts
10-Oct-18 23:12 34.943678 -119.691217 295 2206ft 0kts

Navigation Log

Ident Type
Flight plan parsing failed, navigation log unavailable